METAR|ÜBERSETZT|TAF
EDHK 310650Z 26002KT CAVOK 15/13 Q1012
Login|Impressum|Kontakt



Impressum

LSV - Luftsportverein Kiel e.V.
Boelckestraße 100
24159 Kiel

Tel. 0431 / 32 32 15
info@luftsport-kiel.de

Amtsgericht Kiel 5 VR 2279
Vorstand: René Lancelle, Markus Bartels
Geschäftsführer: Frank Sörensen
USt-ID-Nr. DE 134856139


Realisierung und Konzept durch eine Projektgruppe der Fachhochschule Kiel
Georg Gomm, Alexander Struck, Arne Gerhold, Suha Geisler & Nils T. Kannengießer